createdAt,value
2022-10-30T00:02:08.469Z,100371.22
2022-10-30T00:04:38.058Z,100374.28
2022-10-30T00:07:07.581Z,100368.25
2022-10-30T00:09:37.113Z,100373.78
2022-10-30T00:12:07.454Z,100378.31
2022-10-30T00:14:38.988Z,100376.22
2022-10-30T00:17:09.008Z,100373.34
2022-10-30T00:19:38.685Z,100377.91
2022-10-30T00:24:36.598Z,100368.97
2022-10-30T00:27:06.164Z,100365.22
2022-10-30T00:29:35.778Z,100356.13
2022-10-30T00:32:06.920Z,100357.53
2022-10-30T00:34:36.406Z,100355.63
2022-10-30T00:37:05.941Z,100361.25
2022-10-30T00:39:35.487Z,100360.22
2022-10-30T00:42:05.089Z,100354.63
2022-10-30T00:44:38.711Z,100351.97
2022-10-30T00:47:14.151Z,100357.44
2022-10-30T00:49:49.741Z,100354.81
2022-10-30T00:52:20.736Z,100348.53
2022-10-30T00:54:50.544Z,100361.38
2022-10-30T00:57:20.369Z,100353.88
2022-10-30T00:59:50.649Z,100339.22
2022-10-30T01:02:22.669Z,100339.97
2022-10-30T01:04:52.415Z,100342.84
2022-10-30T01:07:22.388Z,100340.28
2022-10-30T01:09:51.985Z,100334.13
2022-10-30T01:12:22.161Z,100325.16
2022-10-30T01:14:54.540Z,100322.50
2022-10-30T01:17:35.244Z,100316.97
2022-10-30T01:20:12.423Z,100318.91
2022-10-30T01:22:51.533Z,100317.06
2022-10-30T01:25:27.970Z,100322.22
2022-10-30T01:28:00.246Z,100315.59
2022-10-30T01:30:34.881Z,100316.16
2022-10-30T01:33:13.965Z,100311.63
2022-10-30T01:35:48.657Z,100316.38
2022-10-30T01:38:20.601Z,100305.59
2022-10-30T01:40:50.169Z,100318.47
2022-10-30T01:43:19.690Z,100301.75
2022-10-30T01:46:00.732Z,100310.91
2022-10-30T01:48:53.702Z,100300.41
2022-10-30T01:51:28.536Z,100303.09
2022-10-30T01:54:02.909Z,100297.94
2022-10-30T01:56:38.788Z,100295.09
2022-10-30T01:59:12.363Z,100293.72
2022-10-30T02:01:42.384Z,100302.56
2022-10-30T02:04:14.344Z,100294.69
2022-10-30T02:06:44.325Z,100297.25
2022-10-30T02:09:16.036Z,100299.66
2022-10-30T02:11:48.920Z,100297.22
2022-10-30T02:14:21.388Z,100283.56
2022-10-30T02:16:52.926Z,100293.97
2022-10-30T02:19:23.828Z,100282.03
2022-10-30T02:21:54.817Z,100290.22
2022-10-30T02:24:24.460Z,100287.22
2022-10-30T02:26:53.979Z,100290.06
2022-10-30T02:29:23.475Z,100285.66
2022-10-30T02:31:53.200Z,100289.03
2022-10-30T02:34:22.943Z,100283.44
2022-10-30T02:36:52.440Z,100282.09
2022-10-30T02:39:23.363Z,100279.13
2022-10-30T02:41:52.964Z,100275.47
2022-10-30T02:44:22.552Z,100271.88
2022-10-30T02:46:52.121Z,100280.50
2022-10-30T02:49:21.729Z,100277.56
2022-10-30T02:51:51.289Z,100278.22
2022-10-30T02:54:20.875Z,100276.59
2022-10-30T02:56:51.765Z,100277.75
2022-10-30T02:59:21.676Z,100271.78
2022-10-30T03:01:51.445Z,100277.91
2022-10-30T03:04:21.047Z,100277.03
2022-10-30T03:06:50.517Z,100277.41
2022-10-30T03:09:20.036Z,100281.47
2022-10-30T03:11:51.672Z,100285.00
2022-10-30T03:14:22.300Z,100287.66
2022-10-30T03:16:52.743Z,100282.91
2022-10-30T03:19:22.263Z,100280.91
2022-10-30T03:21:51.857Z,100285.88
2022-10-30T03:24:21.601Z,100277.50
2022-10-30T03:26:52.526Z,100281.09
2022-10-30T03:29:22.076Z,100278.25
2022-10-30T03:31:51.740Z,100270.03
2022-10-30T03:34:21.272Z,100276.09
2022-10-30T03:36:51.020Z,100274.03
2022-10-30T03:39:20.612Z,100276.09
2022-10-30T03:41:50.383Z,100278.50
2022-10-30T03:44:21.276Z,100274.88
2022-10-30T03:46:50.833Z,100276.50
2022-10-30T03:49:20.326Z,100278.84
2022-10-30T03:51:49.901Z,100275.84
2022-10-30T03:54:19.597Z,100285.78
2022-10-30T03:56:49.377Z,100282.00
2022-10-30T03:59:18.964Z,100283.03
2022-10-30T04:01:50.248Z,100270.44
2022-10-30T04:04:19.997Z,100283.88
2022-10-30T04:06:49.550Z,100285.97
2022-10-30T04:09:19.084Z,100278.50
2022-10-30T04:11:49.993Z,100275.94
2022-10-30T04:14:19.933Z,100282.38
2022-10-30T04:16:51.300Z,100277.91
2022-10-30T04:19:20.865Z,100275.75
2022-10-30T04:21:51.338Z,100278.31
2022-10-30T04:24:20.843Z,100277.41
2022-10-30T04:26:50.637Z,100270.53
2022-10-30T04:29:20.732Z,100279.44
2022-10-30T04:31:51.719Z,100272.38
2022-10-30T04:34:21.572Z,100279.50
2022-10-30T04:36:51.117Z,100271.44
2022-10-30T04:39:21.237Z,100281.22
2022-10-30T04:41:50.869Z,100283.66
2022-10-30T04:44:20.514Z,100284.13
2022-10-30T04:46:52.616Z,100284.31
2022-10-30T04:49:22.169Z,100283.97
2022-10-30T04:51:51.901Z,100288.31
2022-10-30T04:54:22.155Z,100292.66
2022-10-30T04:56:51.771Z,100288.41
2022-10-30T04:59:21.300Z,100290.94
2022-10-30T05:01:52.267Z,100292.47
2022-10-30T05:04:22.246Z,100291.78
2022-10-30T05:06:51.761Z,100305.25
2022-10-30T05:09:21.264Z,100305.06
2022-10-30T05:11:52.997Z,100306.34
2022-10-30T05:14:24.919Z,100310.63
2022-10-30T05:16:56.285Z,100304.50
2022-10-30T05:19:26.039Z,100303.28
2022-10-30T05:21:55.681Z,100309.19
2022-10-30T05:24:25.153Z,100310.19
2022-10-30T05:26:54.662Z,100302.69
2022-10-30T05:29:25.502Z,100308.69
2022-10-30T05:31:56.405Z,100307.91
2022-10-30T05:34:25.893Z,100306.16
2022-10-30T05:36:55.509Z,100299.22
2022-10-30T05:39:25.115Z,100309.25
2022-10-30T05:41:54.754Z,100300.28
2022-10-30T05:44:40.603Z,100305.13
2022-10-30T05:47:15.464Z,100298.47
2022-10-30T05:49:44.981Z,100306.53
2022-10-30T05:52:14.650Z,100300.28
2022-10-30T05:54:44.198Z,100307.94
2022-10-30T05:57:33.162Z,100310.41
2022-10-30T06:00:02.742Z,100299.63
2022-10-30T06:02:34.295Z,100299.34
2022-10-30T06:05:04.246Z,100303.50
2022-10-30T06:07:34.026Z,100305.78
2022-10-30T06:10:03.541Z,100306.31
2022-10-30T06:12:33.113Z,100303.41
2022-10-30T06:15:02.647Z,100300.53
2022-10-30T06:17:32.292Z,100308.09
2022-10-30T06:20:03.232Z,100305.13
2022-10-30T06:22:32.894Z,100302.63
2022-10-30T06:25:02.866Z,100290.53
2022-10-30T06:27:35.499Z,100290.59
2022-10-30T06:30:05.354Z,100291.56
2022-10-30T06:32:35.001Z,100296.38
2022-10-30T06:35:06.499Z,100285.97
2022-10-30T06:37:40.286Z,100289.75
2022-10-30T06:40:10.501Z,100291.75
2022-10-30T06:42:43.264Z,100291.47
2022-10-30T06:45:13.234Z,100282.41
2022-10-30T06:47:43.216Z,100278.91
2022-10-30T06:50:15.034Z,100288.28
2022-10-30T06:52:44.809Z,100287.84
2022-10-30T06:55:14.344Z,100281.97
2022-10-30T06:57:45.178Z,100274.88
2022-10-30T07:00:15.069Z,100276.75
2022-10-30T07:02:45.968Z,100280.34
2022-10-30T07:05:17.240Z,100279.50
2022-10-30T07:07:47.029Z,100278.25
2022-10-30T07:10:16.673Z,100271.22
2022-10-30T07:12:53.985Z,100264.84
2022-10-30T07:15:24.388Z,100270.25
2022-10-30T07:17:55.442Z,100274.56
2022-10-30T07:20:26.756Z,100271.94
2022-10-30T07:22:56.488Z,100264.72
2022-10-30T07:25:26.009Z,100256.56
2022-10-30T07:27:56.585Z,100247.50
2022-10-30T07:33:02.791Z,100252.00
2022-10-30T07:35:34.636Z,100254.31
2022-10-30T07:38:05.169Z,100246.69
2022-10-30T07:40:34.961Z,100250.78
2022-10-30T07:43:05.488Z,100253.19
2022-10-30T07:45:35.266Z,100258.13
2022-10-30T07:48:05.062Z,100255.16
2022-10-30T07:50:36.211Z,100253.44
2022-10-30T07:53:05.854Z,100250.34
2022-10-30T07:55:35.462Z,100255.28
2022-10-30T07:58:05.042Z,100249.03
2022-10-30T08:00:34.782Z,100240.66
2022-10-30T08:03:04.259Z,100233.28
2022-10-30T08:05:33.890Z,100235.28
2022-10-30T08:08:05.034Z,100229.13
2022-10-30T08:10:34.886Z,100234.53
2022-10-30T08:13:05.309Z,100229.22
2022-10-30T08:15:35.301Z,100228.69
2022-10-30T08:18:06.220Z,100237.59
2022-10-30T08:20:36.149Z,100220.81
2022-10-30T08:23:07.181Z,100216.72
2022-10-30T08:25:36.763Z,100218.41
2022-10-30T08:28:07.585Z,100224.50
2022-10-30T08:30:38.094Z,100220.41
2022-10-30T08:33:08.748Z,100220.72
2022-10-30T08:35:38.353Z,100216.59
2022-10-30T08:38:09.301Z,100215.47
2022-10-30T08:40:39.060Z,100213.91
2022-10-30T08:43:09.308Z,100205.25
2022-10-30T08:45:39.065Z,100201.53
2022-10-30T08:48:11.488Z,100205.78
2022-10-30T08:50:41.557Z,100203.91
2022-10-30T08:53:14.740Z,100198.69
2022-10-30T08:55:44.516Z,100199.22
2022-10-30T08:58:13.998Z,100188.41
2022-10-30T09:00:43.636Z,100191.47
2022-10-30T09:03:13.146Z,100187.19
2022-10-30T09:05:42.709Z,100179.91
2022-10-30T09:08:13.577Z,100184.88
2022-10-30T09:10:43.123Z,100179.56
2022-10-30T09:13:13.312Z,100175.72
2022-10-30T09:15:43.767Z,100174.75
2022-10-30T09:18:13.270Z,100179.41
2022-10-30T09:20:42.774Z,100183.34
2022-10-30T09:23:13.710Z,100176.19
2022-10-30T09:25:43.323Z,100177.75
2022-10-30T09:28:12.857Z,100171.84
2022-10-30T09:30:42.476Z,100165.00
2022-10-30T09:33:12.052Z,100158.22
2022-10-30T09:35:41.534Z,100155.38
2022-10-30T09:38:11.464Z,100157.63
2022-10-30T09:40:50.118Z,100147.19
2022-10-30T09:43:24.974Z,100141.38
2022-10-30T09:46:08.537Z,100142.06
2022-10-30T09:48:46.702Z,100133.19
2022-10-30T09:51:26.627Z,100139.41
2022-10-30T09:54:01.819Z,100135.25
2022-10-30T09:56:33.918Z,100129.44
2022-10-30T09:59:09.298Z,100123.28
2022-10-30T10:01:43.361Z,100121.31
2022-10-30T10:04:25.631Z,100121.09
2022-10-30T10:07:03.946Z,100116.19
2022-10-30T10:09:34.958Z,100110.66
2022-10-30T10:12:09.577Z,100114.03
2022-10-30T10:14:42.827Z,100097.31
2022-10-30T10:17:14.594Z,100102.41
2022-10-30T10:19:49.366Z,100096.94
2022-10-30T10:22:21.747Z,100095.16
2022-10-30T10:24:51.866Z,100090.09
2022-10-30T10:27:28.163Z,100083.38
2022-10-30T10:30:02.306Z,100083.00
2022-10-30T10:32:53.432Z,100082.31
2022-10-30T10:35:38.280Z,100085.34
2022-10-30T10:38:12.839Z,100075.59
2022-10-30T10:40:49.659Z,100074.72
2022-10-30T10:43:26.892Z,100075.91
2022-10-30T10:46:01.055Z,100064.78
2022-10-30T10:48:36.401Z,100061.75
2022-10-30T10:51:07.740Z,100060.06
2022-10-30T10:53:42.013Z,100051.81
2022-10-30T10:56:11.742Z,100050.63
2022-10-30T10:58:46.083Z,100045.75
2022-10-30T11:01:18.388Z,100035.84
2022-10-30T11:03:52.051Z,100032.59
2022-10-30T11:06:22.459Z,100034.97
2022-10-30T11:08:53.809Z,100029.41
2022-10-30T11:11:24.869Z,100017.91
2022-10-30T11:13:56.720Z,100015.91
2022-10-30T11:16:34.569Z,100009.88
2022-10-30T11:19:05.936Z,100008.16
2022-10-30T11:21:39.396Z,100009.53
2022-10-30T11:24:26.428Z,100000.56
2022-10-30T11:26:57.850Z,100000.41
2022-10-30T11:29:29.857Z,100001.75
2022-10-30T11:32:03.003Z,99993.66
2022-10-30T11:34:34.069Z,99985.91
2022-10-30T11:37:04.459Z,99983.84
2022-10-30T11:39:34.598Z,99987.38
2022-10-30T11:42:08.458Z,99976.09
2022-10-30T11:44:40.423Z,99973.06
2022-10-30T11:47:11.072Z,99976.50
2022-10-30T11:49:44.832Z,99966.88
2022-10-30T11:52:15.384Z,99961.44
2022-10-30T11:54:46.358Z,99962.66
2022-10-30T11:57:22.485Z,99955.75
2022-10-30T11:59:58.198Z,99952.03
2022-10-30T12:02:31.188Z,99945.81
2022-10-30T12:05:02.472Z,99944.44
2022-10-30T12:07:32.411Z,99939.06
2022-10-30T12:10:03.151Z,99942.63
2022-10-30T12:12:39.559Z,99931.66
2022-10-30T12:15:12.663Z,99930.13
2022-10-30T12:17:51.779Z,99936.50
2022-10-30T12:20:21.802Z,99935.03
2022-10-30T12:22:51.553Z,99926.91
2022-10-30T12:25:24.480Z,99917.47
2022-10-30T12:28:00.706Z,99917.47
2022-10-30T12:30:32.203Z,99922.19
2022-10-30T12:33:05.299Z,99921.66
2022-10-30T12:35:40.555Z,99914.63
2022-10-30T12:38:15.205Z,99914.28
2022-10-30T12:40:47.988Z,99919.69
2022-10-30T12:43:19.957Z,99916.84
2022-10-30T12:45:52.220Z,99915.31
2022-10-30T12:48:24.772Z,99907.56
2022-10-30T12:51:03.633Z,99916.81
2022-10-30T12:53:35.849Z,99911.56
2022-10-30T12:56:10.189Z,99904.78
2022-10-30T12:58:42.864Z,99910.63
2022-10-30T13:01:17.756Z,99902.59
2022-10-30T13:03:50.177Z,99901.25
2022-10-30T13:06:22.153Z,99899.59
2022-10-30T13:08:59.233Z,99894.72
2022-10-30T13:11:33.857Z,99897.59
2022-10-30T13:14:05.118Z,99900.97
2022-10-30T13:16:36.636Z,99892.84
2022-10-30T13:19:07.181Z,99890.66
2022-10-30T13:21:40.760Z,99893.72
2022-10-30T13:24:12.718Z,99885.81
2022-10-30T13:26:45.356Z,99889.69
2022-10-30T13:29:21.382Z,99887.50
2022-10-30T13:32:04.676Z,99883.63
2022-10-30T13:34:40.303Z,99878.91
2022-10-30T13:37:14.541Z,99879.94
2022-10-30T13:39:47.982Z,99883.09
2022-10-30T13:42:26.261Z,99881.28
2022-10-30T13:45:02.921Z,99878.53
2022-10-30T13:47:38.767Z,99876.53
2022-10-30T13:50:23.308Z,99872.81
2022-10-30T13:52:55.537Z,99875.34
2022-10-30T13:55:27.061Z,99885.78
2022-10-30T13:57:59.713Z,99883.09
2022-10-30T14:00:35.650Z,99876.88
2022-10-30T14:03:13.804Z,99879.19
2022-10-30T14:05:47.779Z,99870.63
2022-10-30T14:08:22.883Z,99871.28
2022-10-30T14:10:57.541Z,99869.75
2022-10-30T14:13:44.964Z,99868.44
2022-10-30T14:16:32.552Z,99867.91
2022-10-30T14:19:03.930Z,99871.59
2022-10-30T14:21:38.914Z,99862.00
2022-10-30T14:24:14.190Z,99860.31
2022-10-30T14:26:52.594Z,99872.25
2022-10-30T14:29:38.541Z,99867.69
2022-10-30T14:32:27.009Z,99865.50
2022-10-30T14:35:01.054Z,99855.56
2022-10-30T14:37:49.011Z,99862.44
2022-10-30T14:40:38.755Z,99862.25
2022-10-30T14:43:11.153Z,99862.72
2022-10-30T14:45:46.276Z,99866.78
2022-10-30T14:48:19.963Z,99863.25
2022-10-30T14:51:01.414Z,99863.72
2022-10-30T14:53:35.428Z,99864.56
2022-10-30T14:56:08.011Z,99864.31
2022-10-30T14:58:38.205Z,99859.25
2022-10-30T15:01:27.216Z,99867.81
2022-10-30T15:04:05.448Z,99859.38
2022-10-30T15:06:38.817Z,99860.84
2022-10-30T15:09:11.921Z,99857.81
2022-10-30T15:11:53.169Z,99860.50
2022-10-30T15:14:40.673Z,99857.59
2022-10-30T15:17:22.489Z,99850.84
2022-10-30T15:19:52.313Z,99851.03
2022-10-30T15:22:24.513Z,99839.59
2022-10-30T15:24:54.712Z,99843.75
2022-10-30T15:27:25.009Z,99846.94
2022-10-30T15:29:57.342Z,99845.56
2022-10-30T15:32:26.943Z,99845.88
2022-10-30T15:35:00.005Z,99834.59
2022-10-30T15:37:31.232Z,99838.78
2022-10-30T15:40:10.700Z,99842.78
2022-10-30T15:42:40.633Z,99846.78
2022-10-30T15:45:17.095Z,99844.25
2022-10-30T15:47:49.048Z,99850.09
2022-10-30T15:50:21.705Z,99851.41
2022-10-30T15:52:54.018Z,99850.69
2022-10-30T15:55:27.440Z,99851.03
2022-10-30T15:58:03.822Z,99847.66
2022-10-30T16:00:35.783Z,99841.13
2022-10-30T16:03:06.405Z,99845.28
2022-10-30T16:05:36.166Z,99849.59
2022-10-30T16:08:12.048Z,99847.38
2022-10-30T16:10:43.581Z,99855.59
2022-10-30T16:13:17.501Z,99850.50
2022-10-30T16:15:48.471Z,99859.59
2022-10-30T16:18:20.132Z,99854.50
2022-10-30T16:20:51.041Z,99855.94
2022-10-30T16:23:22.813Z,99858.78
2022-10-30T16:25:55.321Z,99859.06
2022-10-30T16:28:26.200Z,99869.13
2022-10-30T16:30:57.625Z,99866.75
2022-10-30T16:33:28.343Z,99877.81
2022-10-30T16:35:58.274Z,99872.75
2022-10-30T16:38:32.453Z,99878.44
2022-10-30T16:41:02.419Z,99869.97
2022-10-30T16:43:33.211Z,99878.72
2022-10-30T16:46:21.460Z,99876.47
2022-10-30T16:48:55.769Z,99883.84
2022-10-30T16:51:25.676Z,99883.31
2022-10-30T16:53:56.622Z,99888.16
2022-10-30T16:56:27.609Z,99887.28
2022-10-30T16:59:06.378Z,99888.59
2022-10-30T17:01:36.437Z,99887.44
2022-10-30T17:04:06.431Z,99885.91
2022-10-30T17:06:39.909Z,99887.88
2022-10-30T17:09:11.722Z,99889.19
2022-10-30T17:11:45.921Z,99885.81
2022-10-30T17:14:20.371Z,99883.97
2022-10-30T17:16:55.146Z,99879.88
2022-10-30T17:19:46.321Z,99881.75
2022-10-30T17:22:17.189Z,99887.41
2022-10-30T17:24:48.635Z,99886.88
2022-10-30T17:27:29.663Z,99887.28
2022-10-30T17:30:00.627Z,99889.81
2022-10-30T17:32:42.636Z,99890.84
2022-10-30T17:35:14.381Z,99891.16
2022-10-30T17:37:44.115Z,99885.22
2022-10-30T17:40:15.235Z,99886.19
2022-10-30T17:42:44.932Z,99888.34
2022-10-30T17:45:15.185Z,99884.41
2022-10-30T17:47:44.858Z,99891.78
2022-10-30T17:50:14.480Z,99891.06
2022-10-30T17:52:43.997Z,99888.38
2022-10-30T17:55:23.996Z,99894.16
2022-10-30T17:57:53.834Z,99889.63
2022-10-30T18:00:23.352Z,99887.41
2022-10-30T18:02:52.872Z,99895.75
2022-10-30T18:05:26.590Z,99896.31
2022-10-30T18:07:56.622Z,99895.09
2022-10-30T18:10:27.528Z,99897.06
2022-10-30T18:12:57.421Z,99890.00
2022-10-30T18:15:29.267Z,99893.69
2022-10-30T18:17:59.247Z,99891.56
2022-10-30T18:20:29.277Z,99886.66
2022-10-30T18:22:59.347Z,99893.19
2022-10-30T18:25:32.703Z,99888.22
2022-10-30T18:28:02.435Z,99887.50
2022-10-30T18:30:31.973Z,99884.16
2022-10-30T18:33:02.130Z,99878.91
2022-10-30T18:35:34.030Z,99881.72
2022-10-30T18:38:03.857Z,99877.78
2022-10-30T18:40:34.917Z,99885.28
2022-10-30T18:43:04.431Z,99883.59
2022-10-30T18:45:35.346Z,99885.44
2022-10-30T18:48:05.047Z,99885.00
2022-10-30T18:50:35.501Z,99882.47
2022-10-30T18:53:05.654Z,99882.38
2022-10-30T18:55:37.767Z,99884.31
2022-10-30T18:58:08.456Z,99884.47
2022-10-30T19:00:58.034Z,99883.50
2022-10-30T19:03:28.313Z,99887.16
2022-10-30T19:05:58.176Z,99885.19
2022-10-30T19:08:27.900Z,99881.38
2022-10-30T19:10:58.860Z,99883.50
2022-10-30T19:13:28.824Z,99885.78
2022-10-30T19:16:01.024Z,99885.19
2022-10-30T19:18:32.708Z,99886.47
2022-10-30T19:21:05.147Z,99887.47
2022-10-30T19:23:35.969Z,99887.47
2022-10-30T19:26:07.066Z,99886.19
2022-10-30T19:28:38.306Z,99883.91
2022-10-30T19:31:08.369Z,99880.41
2022-10-30T19:33:37.836Z,99874.78
2022-10-30T19:36:07.793Z,99884.34
2022-10-30T19:38:37.472Z,99882.53
2022-10-30T19:41:10.175Z,99887.59
2022-10-30T19:43:39.868Z,99870.25
2022-10-30T19:46:09.920Z,99888.84
2022-10-30T19:51:29.536Z,99898.16
2022-10-30T19:53:59.089Z,99904.50
2022-10-30T19:56:30.033Z,99903.09
2022-10-30T19:58:59.552Z,99901.38
2022-10-30T20:01:29.186Z,99901.66
2022-10-30T20:03:58.809Z,99909.84
2022-10-30T20:06:28.387Z,99911.69
2022-10-30T20:08:57.932Z,99925.06
2022-10-30T20:11:27.439Z,99920.38
2022-10-30T20:13:58.868Z,99920.25
2022-10-30T20:16:28.888Z,99924.47
2022-10-30T20:18:58.471Z,99920.66
2022-10-30T20:21:28.496Z,99921.78
2022-10-30T20:23:58.132Z,99922.06
2022-10-30T20:26:28.367Z,99923.16
2022-10-30T20:29:01.357Z,99929.09
2022-10-30T20:31:31.627Z,99916.41
2022-10-30T20:34:01.434Z,99909.91
2022-10-30T20:36:30.951Z,99908.00
2022-10-30T20:39:00.500Z,99910.78
2022-10-30T20:41:30.395Z,99908.94
2022-10-30T20:44:01.318Z,99913.16
2022-10-30T20:46:32.183Z,99914.16
2022-10-30T20:49:12.248Z,99912.78
2022-10-30T20:51:47.859Z,99924.91
2022-10-30T20:54:17.950Z,99917.41
2022-10-30T20:56:47.414Z,99911.69
2022-10-30T20:59:18.450Z,99920.97
2022-10-30T21:01:48.139Z,99917.31
2022-10-30T21:04:17.781Z,99923.53
2022-10-30T21:06:47.323Z,99909.56
2022-10-30T21:09:17.178Z,99913.78
2022-10-30T21:11:46.699Z,99914.91
2022-10-30T21:14:16.476Z,99909.56
2022-10-30T21:16:53.866Z,99904.06
2022-10-30T21:19:23.577Z,99908.88
2022-10-30T21:21:53.337Z,99912.22
2022-10-30T21:24:22.883Z,99906.59
2022-10-30T21:26:52.813Z,99910.41
2022-10-30T21:29:22.281Z,99912.09
2022-10-30T21:31:53.275Z,99909.00
2022-10-30T21:34:22.786Z,99909.94
2022-10-30T21:36:52.320Z,99915.59
2022-10-30T21:39:21.872Z,99911.41
2022-10-30T21:41:51.405Z,99907.72
2022-10-30T21:44:22.259Z,99915.75
2022-10-30T21:46:53.169Z,99900.69
2022-10-30T21:49:22.835Z,99898.16
2022-10-30T21:51:52.340Z,99905.44
2022-10-30T21:54:22.345Z,99906.84
2022-10-30T21:56:51.917Z,99908.28
2022-10-30T21:59:21.421Z,99907.59
2022-10-30T22:01:50.946Z,99910.13
2022-10-30T22:04:21.925Z,99908.41
2022-10-30T22:06:51.465Z,99910.81
2022-10-30T22:09:20.971Z,99908.84
2022-10-30T22:11:51.372Z,99905.84
2022-10-30T22:14:21.249Z,99909.25
2022-10-30T22:16:51.489Z,99913.03
2022-10-30T22:19:22.525Z,99913.59
2022-10-30T22:21:52.124Z,99912.22
2022-10-30T22:24:21.852Z,99907.13
2022-10-30T22:26:51.352Z,99905.44
2022-10-30T22:29:20.974Z,99899.22
2022-10-30T22:31:50.706Z,99894.88
2022-10-30T22:34:20.211Z,99899.66
2022-10-30T22:36:51.327Z,99897.00
2022-10-30T22:39:21.268Z,99897.81
2022-10-30T22:41:50.757Z,99890.81
2022-10-30T22:44:20.276Z,99898.97
2022-10-30T22:46:50.092Z,99898.53
2022-10-30T22:49:19.578Z,99905.13
2022-10-30T22:51:49.129Z,99900.75
2022-10-30T22:54:20.017Z,99899.22
2022-10-30T22:56:49.508Z,99900.34
2022-10-30T22:59:19.002Z,99895.97
2022-10-30T23:01:51.956Z,99898.69
2022-10-30T23:04:21.492Z,99900.81
2022-10-30T23:06:50.968Z,99901.22
2022-10-30T23:09:22.306Z,99899.38
2022-10-30T23:11:55.516Z,99895.59
2022-10-30T23:14:25.576Z,99894.88
2022-10-30T23:16:55.449Z,99888.56
2022-10-30T23:19:26.481Z,99883.34
2022-10-30T23:21:56.447Z,99888.34
2022-10-30T23:24:27.480Z,99883.66
2022-10-30T23:26:56.989Z,99878.28
2022-10-30T23:29:26.555Z,99875.34
2022-10-30T23:31:56.084Z,99873.78
2022-10-30T23:34:25.616Z,99876.88
2022-10-30T23:36:59.193Z,99882.63
2022-10-30T23:39:32.613Z,99875.91
2022-10-30T23:42:02.145Z,99883.66
2022-10-30T23:44:31.666Z,99882.69
2022-10-30T23:47:01.400Z,99876.91
2022-10-30T23:49:34.022Z,99876.78
2022-10-30T23:52:03.995Z,99870.56
2022-10-30T23:54:34.878Z,99879.59
2022-10-30T23:57:04.512Z,99884.06
2022-10-30T23:59:34.041Z,99882.06
